Time;durP1;ratioP1;P1;durP2;ratioP2;P2;SDS_P1;SDS_P2;PMS_P1;PMS_P2;Temp;Humidity;BMP_temperature;BMP_pressure;BME280_temperature;BME280_humidity;BME280_pressure;Samples;Min_cycle;Max_cycle;Signal;HPM_P1;HPM_P2
2022/01/19 00:00:11;;;;;;;39.20;16.30;;;4.90;99.90;;;;;;4942708;28;20051;-75
2022/01/19 00:02:37;;;;;;;46.63;16.52;;;4.80;99.90;;;;;;4928400;28;20052;-76
2022/01/19 00:05:04;;;;;;;37.65;14.65;;;4.80;99.90;;;;;;4929480;28;20483;-75
2022/01/19 00:07:30;;;;;;;43.08;16.23;;;4.80;99.90;;;;;;4938227;28;20051;-75
2022/01/19 00:09:56;;;;;;;46.28;18.20;;;4.80;99.90;;;;;;4929089;28;20048;-75
2022/01/19 00:12:22;;;;;;;48.00;16.58;;;4.80;99.90;;;;;;4932382;28;20056;-75
2022/01/19 00:14:47;;;;;;;52.85;18.20;;;5.00;99.90;;;;;;4932724;28;20105;-75
2022/01/19 00:17:13;;;;;;;49.78;17.85;;;4.80;99.90;;;;;;4939827;28;20054;-75
2022/01/19 00:19:39;;;;;;;45.83;17.30;;;5.00;99.90;;;;;;4940094;28;20465;-75
2022/01/19 00:22:04;;;;;;;55.65;19.35;;;4.80;99.90;;;;;;4934449;28;20039;-75
2022/01/19 00:24:30;;;;;;;51.10;19.08;;;4.80;99.90;;;;;;4933774;28;20047;-75
2022/01/19 00:26:55;;;;;;;55.80;19.55;;;4.80;99.90;;;;;;4937999;28;20043;-75
2022/01/19 00:29:21;;;;;;;52.92;20.15;;;4.80;99.90;;;;;;4928563;28;20047;-75
2022/01/19 00:31:46;;;;;;;55.47;18.88;;;4.80;99.90;;;;;;4939216;28;20100;-75
2022/01/19 00:34:12;;;;;;;57.42;20.45;;;4.80;99.90;;;;;;4938141;28;20046;-76
2022/01/19 00:36:37;;;;;;;47.03;18.13;;;4.80;99.90;;;;;;4932473;28;20035;-75
2022/01/19 00:39:03;;;;;;;47.55;19.08;;;4.80;99.90;;;;;;4941354;28;20043;-75
2022/01/19 00:41:29;;;;;;;56.05;19.08;;;4.90;99.90;;;;;;4931127;28;20066;-75
2022/01/19 00:43:54;;;;;;;60.08;20.73;;;4.80;99.90;;;;;;4935725;28;20059;-75
2022/01/19 00:46:20;;;;;;;52.72;19.88;;;4.80;99.90;;;;;;4934143;28;20044;-75
2022/01/19 00:48:45;;;;;;;54.03;19.23;;;4.80;99.90;;;;;;4933270;28;20402;-75
2022/01/19 00:51:11;;;;;;;52.80;19.30;;;4.90;99.90;;;;;;4940752;28;20067;-75
2022/01/19 00:53:36;;;;;;;60.10;20.92;;;4.90;99.90;;;;;;4936228;28;20051;-75
2022/01/19 00:56:02;;;;;;;56.00;21.13;;;4.90;99.90;;;;;;4939340;28;20422;-75
2022/01/19 00:58:28;;;;;;;57.63;19.42;;;4.90;99.90;;;;;;4931343;28;20059;-75
2022/01/19 01:00:54;;;;;;;46.15;19.05;;;4.90;99.90;;;;;;4932462;28;20058;-75
2022/01/19 01:03:19;;;;;;;54.25;20.20;;;4.90;99.90;;;;;;4939775;28;20035;-75
2022/01/19 01:05:45;;;;;;;56.50;19.95;;;4.90;99.90;;;;;;4944034;28;20043;-75
2022/01/19 01:08:11;;;;;;;59.15;21.60;;;4.90;99.90;;;;;;4939060;28;20086;-75
2022/01/19 01:10:42;;;;;;;56.83;20.00;;;4.90;99.90;;;;;;4937111;28;20505;-74
2022/01/19 01:15:24;;;;;;;61.10;20.85;;;5.00;99.90;;;;;;4938593;28;20043;-75
2022/01/19 01:16:32;;;;;;;53.67;21.58;;;4.90;99.90;;;;;;4953130;28;20086;-75
2022/01/19 01:18:58;;;;;;;50.50;20.27;;;4.90;99.90;;;;;;4944919;28;20044;-75
2022/01/19 01:21:24;;;;;;;57.42;20.33;;;4.90;99.90;;;;;;4935971;28;20072;-75
2022/01/19 01:23:49;;;;;;;53.67;20.38;;;4.90;99.90;;;;;;4939423;29;20086;-74
2022/01/19 01:26:15;;;;;;;55.30;21.05;;;4.90;99.90;;;;;;4940549;28;20051;-75
2022/01/19 01:28:41;;;;;;;54.80;20.65;;;4.90;99.90;;;;;;4935595;28;20047;-75
2022/01/19 01:31:10;;;;;;;51.50;21.27;;;4.90;99.90;;;;;;4936362;28;20059;-75
2022/01/19 01:33:37;;;;;;;60.70;21.38;;;4.90;99.90;;;;;;4936899;28;20047;-75
2022/01/19 01:36:03;;;;;;;58.08;21.27;;;4.90;99.90;;;;;;4936962;28;20044;-75
2022/01/19 01:38:28;;;;;;;65.10;21.60;;;4.90;99.90;;;;;;4934747;28;20055;-75
2022/01/19 01:40:54;;;;;;;58.20;21.75;;;4.90;99.90;;;;;;4936625;28;20054;-75
2022/01/19 01:43:20;;;;;;;46.95;19.90;;;4.90;99.90;;;;;;4940097;28;20547;-74
2022/01/19 01:45:49;;;;;;;59.15;21.85;;;4.30;99.90;;;;;;4938259;28;20075;-75
2022/01/19 01:48:18;;;;;;;64.13;20.73;;;4.90;99.90;;;;;;4939436;28;20051;-75
2022/01/19 01:53:31;;;;;;;61.85;20.98;;;4.90;99.90;;;;;;4934470;28;20494;-74
2022/01/19 01:55:59;;;;;;;64.38;21.95;;;4.90;99.90;;;;;;4932881;28;20527;-75
2022/01/19 01:58:26;;;;;;;65.53;21.38;;;4.90;99.90;;;;;;4945761;28;20560;-74
2022/01/19 02:00:53;;;;;;;54.25;21.20;;;4.90;99.90;;;;;;4935526;28;20096;-75
2022/01/19 02:03:19;;;;;;;58.47;21.13;;;4.90;99.90;;;;;;4933589;28;20040;-75
2022/01/19 02:08:37;;;;;;;63.28;20.92;;;4.90;99.90;;;;;;4937593;28;20055;-75
2022/01/19 02:16:43;;;;;;;63.05;22.05;;;4.90;99.90;;;;;;4934361;28;20063;-75
2022/01/19 02:22:02;;;;;;;72.60;24.17;;;4.90;99.90;;;;;;4941394;28;20050;-74
2022/01/19 02:24:41;;;;;;;67.15;22.15;;;4.90;99.90;;;;;;4940418;28;20455;-75
2022/01/19 02:40:23;;;;;;;54.10;21.42;;;4.90;99.90;;;;;;4934510;28;20059;-75
2022/01/19 02:43:07;;;;;;;63.70;21.90;;;4.80;99.90;;;;;;4933734;28;20087;-75
2022/01/19 02:51:07;;;;;;;56.65;21.05;;;4.80;99.90;;;;;;4934871;28;20399;-74
2022/01/19 02:53:36;;;;;;;62.63;21.38;;;4.80;99.90;;;;;;4940948;29;20052;-74
2022/01/19 02:56:09;;;;;;;57.80;21.88;;;4.80;99.90;;;;;;4934844;28;20078;-75
2022/01/19 02:58:42;;;;;;;76.43;22.10;;;4.80;99.90;;;;;;4935705;28;20051;-74
2022/01/19 03:09:21;;;;;;;72.18;23.52;;;4.80;99.90;;;;;;4931937;28;20094;-74
2022/01/19 03:11:46;;;;;;;65.65;23.15;;;4.80;99.90;;;;;;4940272;28;20074;-74
2022/01/19 03:14:12;;;;;;;69.72;23.05;;;4.80;99.90;;;;;;4936436;28;20067;-74
2022/01/19 03:16:38;;;;;;;77.35;24.52;;;4.80;99.90;;;;;;4931273;28;20044;-74
2022/01/19 03:19:06;;;;;;;67.90;24.40;;;4.80;99.90;;;;;;4935566;28;20532;-74
2022/01/19 03:21:32;;;;;;;73.95;24.65;;;4.70;99.90;;;;;;4939727;28;20075;-74
2022/01/19 03:23:58;;;;;;;60.65;23.92;;;4.80;99.90;;;;;;4928141;28;20079;-74
2022/01/19 03:26:24;;;;;;;62.53;23.77;;;4.80;99.90;;;;;;4940688;28;20043;-74
2022/01/19 03:28:49;;;;;;;66.28;24.17;;;4.70;99.90;;;;;;4931978;28;20094;-74
2022/01/19 03:31:15;;;;;;;64.25;24.40;;;4.70;99.90;;;;;;4936232;28;20450;-74
2022/01/19 03:33:40;;;;;;;74.90;27.23;;;4.70;99.90;;;;;;4933249;28;20079;-75
2022/01/19 03:36:06;;;;;;;73.38;26.75;;;4.70;99.90;;;;;;4935840;28;20047;-74
2022/01/19 03:38:32;;;;;;;72.82;26.60;;;4.70;99.90;;;;;;4935907;28;20373;-74
2022/01/19 03:40:57;;;;;;;62.17;23.75;;;4.70;99.90;;;;;;4931432;28;20052;-74
2022/01/19 03:43:23;;;;;;;61.30;24.70;;;4.70;99.90;;;;;;4941497;28;20058;-74
2022/01/19 03:45:52;;;;;;;66.15;24.75;;;4.70;99.90;;;;;;4937364;28;20039;-74
2022/01/19 03:48:35;;;;;;;56.95;25.60;;;4.70;99.90;;;;;;4932779;28;20052;-74
2022/01/19 03:51:01;;;;;;;53.10;24.08;;;4.70;99.90;;;;;;4938800;28;20418;-74
2022/01/19 03:53:26;;;;;;;58.03;22.83;;;4.70;99.90;;;;;;4930420;28;20047;-74
2022/01/19 03:55:52;;;;;;;52.65;21.88;;;4.60;99.90;;;;;;4933999;28;20058;-74
2022/01/19 03:58:17;;;;;;;61.75;23.73;;;4.60;99.90;;;;;;4931296;28;20043;-74
2022/01/19 04:00:45;;;;;;;72.72;24.98;;;4.60;99.90;;;;;;4935720;28;20067;-74
2022/01/19 04:03:14;;;;;;;57.75;25.02;;;4.60;99.90;;;;;;4937115;28;20058;-74
2022/01/19 04:08:09;;;;;;;60.83;23.85;;;4.60;99.90;;;;;;4934633;29;20051;-74
2022/01/19 04:10:35;;;;;;;60.03;25.23;;;4.50;99.90;;;;;;4930154;28;20533;-74
2022/01/19 04:13:23;;;;;;;59.13;24.30;;;4.50;99.90;;;;;;4930565;28;20053;-74
2022/01/19 04:15:49;;;;;;;54.92;24.00;;;4.50;99.90;;;;;;4931588;28;20063;-74
2022/01/19 04:18:15;;;;;;;64.05;23.75;;;4.50;99.90;;;;;;4936557;28;20043;-74
2022/01/19 04:20:42;;;;;;;59.50;26.83;;;4.50;99.90;;;;;;4940783;28;20070;-74
2022/01/19 04:23:08;;;;;;;60.58;26.98;;;4.50;99.90;;;;;;4934074;28;20074;-74
2022/01/19 04:25:35;;;;;;;62.03;25.92;;;4.40;99.90;;;;;;5016977;28;20047;-74
2022/01/19 04:28:07;;;;;;;71.07;26.33;;;4.50;99.90;;;;;;4932152;28;20162;-74
2022/01/19 04:30:32;;;;;;;63.35;26.17;;;4.50;99.90;;;;;;4949444;28;20070;-74
2022/01/19 04:35:27;;;;;;;64.72;26.80;;;4.50;99.90;;;;;;4933450;28;20806;-75
2022/01/19 04:47:04;;;;;;;59.47;25.38;;;4.50;99.90;;;;;;4937850;28;20479;-75
2022/01/19 05:05:49;;;;;;;61.35;26.38;;;4.50;99.90;;;;;;4932050;28;20491;-75
2022/01/19 05:13:51;;;;;;;58.90;24.77;;;4.50;99.90;;;;;;4933182;28;20058;-74
2022/01/19 05:16:21;;;;;;;63.85;26.23;;;4.50;99.90;;;;;;4930607;28;20300;-74
2022/01/19 05:18:51;;;;;;;58.88;25.08;;;4.50;99.90;;;;;;4950369;28;20070;-75
2022/01/19 05:21:17;;;;;;;66.63;25.95;;;4.50;99.90;;;;;;4935897;28;20415;-75
2022/01/19 05:23:43;;;;;;;56.53;24.80;;;4.50;99.90;;;;;;4937102;28;20043;-75
2022/01/19 05:26:10;;;;;;;55.83;24.80;;;4.50;99.90;;;;;;4934743;28;20056;-75
2022/01/19 05:28:36;;;;;;;55.55;24.13;;;4.50;99.90;;;;;;4939294;28;20499;-75
2022/01/19 05:31:03;;;;;;;54.05;24.48;;;4.50;99.90;;;;;;4950093;28;20047;-75
2022/01/19 05:33:28;;;;;;;57.08;25.88;;;4.50;99.90;;;;;;4937592;28;20608;-75
2022/01/19 05:35:54;;;;;;;59.80;27.67;;;4.50;99.90;;;;;;4935436;28;20067;-74
2022/01/19 05:38:19;;;;;;;58.00;23.98;;;4.50;99.90;;;;;;4930673;28;20070;-75
2022/01/19 05:40:45;;;;;;;55.83;25.75;;;4.50;99.90;;;;;;4931482;28;20056;-75
2022/01/19 05:43:11;;;;;;;59.15;24.05;;;4.50;99.90;;;;;;4935865;28;20052;-75
2022/01/19 05:45:36;;;;;;;59.55;27.42;;;4.50;99.90;;;;;;4934297;28;20445;-75
2022/01/19 05:48:02;;;;;;;63.85;26.75;;;4.50;99.90;;;;;;4932812;28;20102;-75
2022/01/19 05:50:28;;;;;;;57.28;24.50;;;4.50;99.90;;;;;;4937497;28;20047;-74
2022/01/19 05:52:54;;;;;;;52.10;24.83;;;4.50;99.90;;;;;;4938266;28;20375;-75
2022/01/19 05:55:19;;;;;;;56.63;24.98;;;4.50;99.90;;;;;;4940202;28;20070;-75
2022/01/19 05:57:45;;;;;;;58.75;26.23;;;4.50;99.90;;;;;;4934377;28;20529;-74
2022/01/19 06:00:11;;;;;;;57.72;25.80;;;4.50;99.90;;;;;;4938153;28;20561;-74
2022/01/19 06:02:37;;;;;;;60.05;25.63;;;4.50;99.90;;;;;;4935204;28;20054;-75
2022/01/19 06:05:04;;;;;;;59.90;25.17;;;4.50;99.90;;;;;;4934349;28;20762;-75
2022/01/19 06:07:30;;;;;;;58.85;24.80;;;4.50;99.90;;;;;;4933008;28;20071;-75
2022/01/19 06:10:07;;;;;;;56.47;24.33;;;4.50;99.90;;;;;;4939947;28;20093;-75
2022/01/19 06:12:33;;;;;;;58.33;25.30;;;4.50;99.90;;;;;;4932607;28;20051;-75
2022/01/19 06:14:59;;;;;;;58.70;25.45;;;4.50;99.90;;;;;;4932790;28;20552;-75
2022/01/19 06:17:25;;;;;;;56.47;25.50;;;4.50;99.90;;;;;;4934902;29;20040;-74
2022/01/19 06:19:51;;;;;;;53.95;25.85;;;4.50;99.90;;;;;;4934046;28;20162;-73
2022/01/19 06:22:17;;;;;;;52.88;24.27;;;4.50;99.90;;;;;;4938567;28;20494;-74
2022/01/19 06:24:44;;;;;;;54.83;23.30;;;4.50;99.90;;;;;;4934768;28;20051;-74
2022/01/19 06:27:10;;;;;;;61.35;26.33;;;4.50;99.90;;;;;;4946198;28;20039;-74
2022/01/19 06:29:36;;;;;;;58.65;26.77;;;4.50;99.90;;;;;;4942245;28;20058;-74
2022/01/19 06:32:02;;;;;;;60.35;24.20;;;4.50;99.90;;;;;;4936783;28;20051;-74
2022/01/19 06:34:27;;;;;;;55.88;26.52;;;4.50;99.90;;;;;;4940650;28;20047;-74
2022/01/19 06:36:53;;;;;;;64.00;26.70;;;4.50;99.90;;;;;;4944631;28;20557;-76
2022/01/19 06:39:20;;;;;;;62.45;27.33;;;4.50;99.90;;;;;;4936682;28;20039;-76
2022/01/19 06:41:46;;;;;;;58.03;25.10;;;4.50;99.90;;;;;;4935033;28;20070;-74
2022/01/19 06:44:14;;;;;;;66.70;26.90;;;4.50;99.90;;;;;;4940224;28;20546;-74
2022/01/19 06:46:41;;;;;;;58.67;26.52;;;4.50;99.90;;;;;;4941344;28;20584;-74
2022/01/19 06:49:07;;;;;;;64.97;26.98;;;4.50;99.90;;;;;;4934714;28;20047;-74
2022/01/19 06:51:35;;;;;;;62.47;26.13;;;4.50;99.90;;;;;;4939107;28;20047;-74
2022/01/19 06:54:00;;;;;;;57.65;28.52;;;4.50;99.90;;;;;;4938742;28;20048;-74
2022/01/19 06:56:26;;;;;;;68.45;28.42;;;4.60;99.90;;;;;;4934360;28;20047;-74
2022/01/19 06:58:53;;;;;;;59.20;26.17;;;4.60;99.90;;;;;;4942210;28;20051;-75
2022/01/19 07:01:19;;;;;;;59.75;26.20;;;4.60;99.90;;;;;;4942443;28;20036;-75
2022/01/19 07:03:45;;;;;;;60.10;26.00;;;4.60;99.90;;;;;;4938041;28;20600;-75
2022/01/19 07:06:11;;;;;;;69.07;26.67;;;4.60;99.90;;;;;;4937960;28;20517;-74
2022/01/19 07:08:40;;;;;;;58.15;24.25;;;4.60;99.90;;;;;;4938730;28;20549;-75
2022/01/19 07:11:06;;;;;;;58.05;26.30;;;4.60;99.90;;;;;;4935131;28;20490;-75
2022/01/19 07:13:32;;;;;;;53.97;25.65;;;4.60;99.90;;;;;;4938762;28;20044;-76
2022/01/19 07:15:58;;;;;;;58.63;25.55;;;4.60;99.90;;;;;;4938287;28;20414;-77
2022/01/19 07:18:23;;;;;;;60.60;26.40;;;4.50;99.90;;;;;;4935139;28;20040;-77
2022/01/19 07:20:49;;;;;;;61.15;26.30;;;4.50;99.90;;;;;;4940649;28;20043;-77
2022/01/19 07:23:15;;;;;;;56.97;26.60;;;4.50;99.90;;;;;;4947802;28;20047;-78
2022/01/19 07:25:41;;;;;;;61.28;27.38;;;4.70;99.90;;;;;;4937751;28;20052;-76
2022/01/19 07:28:10;;;;;;;62.45;28.65;;;4.50;99.90;;;;;;4933272;28;20391;-75
2022/01/19 07:30:37;;;;;;;61.83;27.65;;;4.80;99.90;;;;;;4937639;28;20047;-75
2022/01/19 07:33:03;;;;;;;62.10;27.73;;;4.50;99.90;;;;;;4935052;28;20554;-75
2022/01/19 07:35:29;;;;;;;64.15;27.08;;;4.50;99.90;;;;;;4937133;28;20043;-75
2022/01/19 07:37:54;;;;;;;62.20;26.63;;;4.50;99.90;;;;;;4935988;28;20396;-75
2022/01/19 07:40:20;;;;;;;60.00;27.35;;;4.50;99.90;;;;;;4939679;28;20079;-75
2022/01/19 07:42:46;;;;;;;65.63;27.83;;;4.50;99.90;;;;;;4934446;28;20082;-75
2022/01/19 07:45:11;;;;;;;60.50;26.90;;;4.50;99.90;;;;;;4937400;28;20043;-76
2022/01/19 07:47:37;;;;;;;61.70;26.75;;;4.50;99.90;;;;;;4945251;28;20089;-75
2022/01/19 07:50:04;;;;;;;64.45;25.10;;;4.50;99.90;;;;;;4943146;28;20083;-75
2022/01/19 07:52:30;;;;;;;57.33;27.02;;;4.50;99.90;;;;;;4960420;28;20041;-75
2022/01/19 07:54:55;;;;;;;67.97;26.33;;;4.60;99.90;;;;;;4940803;28;20051;-76
2022/01/19 07:57:21;;;;;;;55.92;26.52;;;4.60;99.90;;;;;;4936147;28;20120;-75
2022/01/19 07:59:47;;;;;;;55.65;24.15;;;4.60;99.90;;;;;;4935920;28;20106;-76
2022/01/19 08:02:13;;;;;;;55.45;25.42;;;4.60;99.90;;;;;;4935289;28;20430;-77
2022/01/19 08:04:40;;;;;;;55.45;24.70;;;4.50;99.90;;;;;;4932751;28;20098;-77
2022/01/19 08:07:06;;;;;;;57.10;26.75;;;4.50;99.90;;;;;;4933266;28;20040;-77
2022/01/19 08:09:33;;;;;;;62.97;25.65;;;4.50;99.90;;;;;;4939092;28;20047;-77
2022/01/19 08:11:59;;;;;;;61.63;27.05;;;4.50;99.90;;;;;;4936202;28;20075;-77
2022/01/19 08:14:25;;;;;;;63.00;27.38;;;4.50;99.90;;;;;;4935987;28;20078;-77
2022/01/19 08:16:54;;;;;;;62.22;28.25;;;4.40;99.90;;;;;;4934758;28;20404;-77
2022/01/19 08:19:20;;;;;;;59.42;26.95;;;4.40;99.90;;;;;;4933053;28;20035;-77
2022/01/19 08:21:46;;;;;;;57.10;26.45;;;4.40;99.90;;;;;;4938082;28;20552;-77
2022/01/19 08:24:11;;;;;;;65.35;27.33;;;4.40;99.90;;;;;;4938387;28;20050;-77
2022/01/19 08:26:37;;;;;;;60.83;26.20;;;4.40;99.90;;;;;;4934149;28;20521;-77
2022/01/19 08:29:05;;;;;;;57.75;25.45;;;4.40;99.90;;;;;;4932259;28;20058;-77
2022/01/19 08:31:31;;;;;;;59.85;26.30;;;4.40;99.90;;;;;;4931813;28;20068;-77
2022/01/19 08:33:57;;;;;;;53.30;25.95;;;4.40;99.90;;;;;;4937550;28;20510;-77
2022/01/19 08:36:23;;;;;;;53.15;26.02;;;4.40;99.90;;;;;;4938521;28;20051;-77
2022/01/19 08:38:49;;;;;;;60.67;26.10;;;4.40;99.90;;;;;;4938120;28;20040;-77
2022/01/19 08:41:15;;;;;;;58.42;26.85;;;4.40;99.90;;;;;;4938489;28;20078;-77
2022/01/19 08:43:41;;;;;;;61.05;26.85;;;4.40;99.90;;;;;;4936817;28;20185;-77
2022/01/19 08:46:07;;;;;;;57.85;25.35;;;4.40;99.90;;;;;;4932037;28;20114;-77
2022/01/19 08:48:32;;;;;;;55.10;27.08;;;4.40;99.90;;;;;;4938168;28;20177;-77
2022/01/19 08:50:58;;;;;;;61.30;25.77;;;4.40;99.90;;;;;;4932913;28;20054;-77
2022/01/19 08:53:23;;;;;;;54.65;25.85;;;4.40;99.90;;;;;;4935640;28;20139;-77
2022/01/19 08:55:50;;;;;;;56.05;25.42;;;4.40;99.90;;;;;;4943759;28;20085;-77
2022/01/19 08:58:16;;;;;;;49.13;25.27;;;4.40;99.90;;;;;;4935062;28;20048;-77
2022/01/19 09:00:43;;;;;;;60.78;25.13;;;4.40;99.90;;;;;;4933538;28;20062;-76
2022/01/19 09:03:09;;;;;;;56.88;26.83;;;4.40;99.90;;;;;;4939366;28;20051;-77
2022/01/19 09:05:35;;;;;;;54.30;24.52;;;4.40;99.90;;;;;;4935964;28;20479;-77
2022/01/19 09:08:00;;;;;;;53.40;24.98;;;4.40;99.90;;;;;;4944242;28;20051;-77
2022/01/19 09:10:26;;;;;;;56.63;25.50;;;4.50;99.90;;;;;;4936947;28;20047;-77
2022/01/19 09:12:52;;;;;;;59.65;26.52;;;4.50;99.90;;;;;;4934045;28;20052;-77
2022/01/19 09:15:18;;;;;;;55.53;24.15;;;4.50;99.90;;;;;;4931703;28;20039;-77
2022/01/19 09:17:45;;;;;;;54.95;24.35;;;4.50;99.90;;;;;;4945156;28;20079;-77
2022/01/19 09:20:12;;;;;;;52.65;24.48;;;4.50;99.90;;;;;;4940998;28;20554;-77
2022/01/19 09:22:37;;;;;;;57.03;26.33;;;4.50;99.90;;;;;;4936447;28;20112;-77
2022/01/19 09:25:04;;;;;;;51.85;25.08;;;4.50;99.90;;;;;;4940920;28;20071;-77
2022/01/19 09:27:30;;;;;;;58.72;25.33;;;4.50;99.90;;;;;;4945004;28;20555;-77
2022/01/19 09:29:56;;;;;;;57.15;26.48;;;4.60;99.90;;;;;;4930317;28;20129;-77
2022/01/19 09:32:22;;;;;;;62.95;27.50;;;4.60;99.90;;;;;;4935942;28;20070;-77
2022/01/19 09:34:54;;;;;;;52.60;25.45;;;4.60;99.90;;;;;;4941560;28;20051;-77
2022/01/19 09:37:20;;;;;;;52.38;25.58;;;4.60;99.90;;;;;;4942367;28;20093;-77
2022/01/19 09:39:45;;;;;;;61.83;24.92;;;4.60;99.90;;;;;;4937424;28;20490;-77
2022/01/19 09:42:11;;;;;;;61.92;25.75;;;4.60;99.90;;;;;;4933141;28;20055;-77
2022/01/19 09:44:37;;;;;;;51.97;26.90;;;4.70;99.90;;;;;;4950094;28;20044;-77
2022/01/19 09:47:03;;;;;;;57.78;25.88;;;4.70;99.90;;;;;;4935342;28;20044;-77
2022/01/19 09:49:29;;;;;;;56.50;25.52;;;4.70;99.90;;;;;;4932063;28;20047;-77
2022/01/19 09:51:55;;;;;;;53.88;26.17;;;4.70;99.90;;;;;;4934435;28;20069;-75
2022/01/19 09:54:26;;;;;;;50.72;25.63;;;4.70;99.90;;;;;;4941233;28;20134;-74
2022/01/19 09:56:53;;;;;;;57.38;25.58;;;4.70;99.90;;;;;;4939827;28;20165;-75
2022/01/19 09:59:18;;;;;;;52.28;25.85;;;4.70;99.90;;;;;;4938801;28;20078;-75
2022/01/19 10:01:55;;;;;;;52.30;25.98;;;4.80;99.90;;;;;;4937737;28;20051;-74
2022/01/19 10:04:24;;;;;;;56.25;26.08;;;4.80;99.90;;;;;;4946043;28;20126;-75
2022/01/19 10:07:08;;;;;;;50.28;25.90;;;4.80;99.90;;;;;;4940176;28;20181;-74
2022/01/19 10:10:05;;;;;;;55.67;25.08;;;4.80;99.90;;;;;;4932780;28;20499;-73
2022/01/19 10:18:24;;;;;;;51.92;25.65;;;4.90;99.90;;;;;;4934123;28;20411;-76
2022/01/19 10:21:04;;;;;;;48.17;24.27;;;4.90;99.90;;;;;;4939767;28;20051;-76
2022/01/19 10:23:50;;;;;;;51.53;25.98;;;4.90;99.90;;;;;;4934791;28;20130;-76
2022/01/19 10:26:26;;;;;;;53.05;26.23;;;4.90;99.90;;;;;;4934342;28;20047;-76
2022/01/19 10:28:56;;;;;;;54.20;25.92;;;5.00;99.90;;;;;;4929391;28;20079;-75
2022/01/19 10:31:21;;;;;;;48.10;26.38;;;5.00;99.90;;;;;;5027336;28;20051;-74
2022/01/19 10:34:20;;;;;;;49.80;26.85;;;5.00;99.90;;;;;;4933820;28;20055;-74
2022/01/19 10:36:52;;;;;;;55.20;27.15;;;5.00;99.90;;;;;;4970137;28;20044;-74
2022/01/19 10:39:20;;;;;;;55.67;27.23;;;5.00;99.90;;;;;;4936806;28;20048;-74
2022/01/19 10:42:10;;;;;;;51.35;27.08;;;5.00;99.90;;;;;;4931021;28;20060;-74
2022/01/19 10:44:37;;;;;;;53.92;26.27;;;5.00;99.90;;;;;;4936949;28;20052;-73
2022/01/19 10:47:03;;;;;;;58.40;27.30;;;5.00;99.90;;;;;;4937857;28;20418;-74
2022/01/19 10:49:53;;;;;;;51.28;26.85;;;5.00;99.90;;;;;;4939900;28;20040;-74
2022/01/19 10:52:31;;;;;;;57.20;28.10;;;5.00;99.90;;;;;;4938157;28;20043;-74
2022/01/19 10:54:59;;;;;;;52.65;27.30;;;5.00;99.90;;;;;;4937282;28;20051;-77
2022/01/19 10:57:27;;;;;;;56.55;29.63;;;5.00;99.90;;;;;;4931667;28;20071;-76
2022/01/19 11:00:08;;;;;;;53.45;29.90;;;5.00;99.90;;;;;;4941118;28;20051;-76
2022/01/19 11:02:36;;;;;;;62.50;28.58;;;5.00;99.90;;;;;;4938994;28;20054;-76
2022/01/19 11:05:02;;;;;;;61.00;27.83;;;5.00;99.90;;;;;;4931863;28;20055;-76
2022/01/19 11:07:28;;;;;;;58.00;28.35;;;5.00;99.90;;;;;;4932745;28;20884;-74
2022/01/19 11:09:59;;;;;;;60.70;30.10;;;5.00;99.90;;;;;;4934854;28;20060;-79
2022/01/19 11:12:29;;;;;;;60.65;29.27;;;5.00;99.90;;;;;;4939529;28;20074;-77
2022/01/19 11:14:54;;;;;;;56.33;27.92;;;5.00;99.90;;;;;;4933834;28;20056;-78
2022/01/19 11:17:20;;;;;;;58.05;28.63;;;5.00;99.90;;;;;;4938491;28;20051;-76
2022/01/19 11:19:46;;;;;;;57.30;29.08;;;5.00;99.90;;;;;;4937636;28;20051;-75
2022/01/19 11:22:26;;;;;;;61.70;30.27;;;5.00;99.90;;;;;;4933076;28;20074;-75
2022/01/19 11:25:23;;;;;;;61.33;29.92;;;5.00;99.90;;;;;;4935070;28;20456;-76
2022/01/19 11:27:49;;;;;;;54.28;30.00;;;5.00;99.90;;;;;;4939099;28;20105;-76
2022/01/19 11:30:21;;;;;;;60.25;30.92;;;5.00;99.90;;;;;;4926435;28;20064;-76
2022/01/19 11:33:25;;;;;;;58.33;29.25;;;5.00;99.90;;;;;;4930225;28;20059;-77
2022/01/19 11:35:56;;;;;;;61.40;31.58;;;5.00;99.90;;;;;;4937491;28;20052;-77
2022/01/19 11:38:32;;;;;;;61.40;32.05;;;5.10;99.90;;;;;;4934669;28;20134;-75
2022/01/19 11:41:04;;;;;;;62.05;31.17;;;5.10;99.90;;;;;;4940606;28;20758;-75
2022/01/19 11:43:31;;;;;;;61.80;31.27;;;5.10;99.90;;;;;;4939375;28;20090;-75
2022/01/19 11:45:59;;;;;;;61.17;33.13;;;5.10;99.90;;;;;;4930614;28;20048;-75
2022/01/19 11:48:29;;;;;;;63.97;32.85;;;5.10;99.90;;;;;;4934931;28;20479;-76
2022/01/19 11:51:26;;;;;;;66.75;33.70;;;5.10;99.90;;;;;;4935658;28;20135;-76
2022/01/19 11:54:17;;;;;;;65.18;33.45;;;5.10;99.90;;;;;;4935115;28;20559;-76
2022/01/19 11:56:58;;;;;;;67.82;34.08;;;5.10;99.90;;;;;;4930403;28;20098;-75
2022/01/19 11:59:47;;;;;;;72.78;33.70;;;5.20;99.90;;;;;;4938126;28;20052;-75
2022/01/19 12:02:26;;;;;;;67.43;33.35;;;5.20;99.90;;;;;;4944875;28;20574;-74
2022/01/19 12:04:58;;;;;;;70.63;33.97;;;5.20;99.90;;;;;;4937819;28;20055;-75
2022/01/19 12:07:41;;;;;;;63.50;33.67;;;5.30;99.90;;;;;;4934355;28;20050;-75
2022/01/19 12:10:13;;;;;;;68.13;34.38;;;5.30;99.90;;;;;;4935594;28;20048;-79
2022/01/19 12:12:54;;;;;;;72.15;33.38;;;5.30;99.90;;;;;;4936357;28;20082;-77
2022/01/19 12:15:58;;;;;;;74.05;35.10;;;5.40;99.90;;;;;;4942164;28;20072;-78
2022/01/19 12:18:44;;;;;;;65.80;33.28;;;5.40;99.90;;;;;;4963641;28;20402;-77
2022/01/19 12:21:13;;;;;;;69.07;32.25;;;5.40;99.90;;;;;;4951365;28;20044;-77
2022/01/19 12:23:41;;;;;;;71.75;34.40;;;5.50;99.90;;;;;;4946227;28;20038;-78
2022/01/19 12:26:08;;;;;;;78.80;33.13;;;5.40;99.90;;;;;;4937057;28;20644;-77
2022/01/19 12:28:52;;;;;;;69.75;31.52;;;5.50;99.90;;;;;;4934196;28;20048;-77
2022/01/19 12:31:24;;;;;;;78.90;33.03;;;5.50;99.90;;;;;;4937249;28;20047;-77
2022/01/19 12:34:11;;;;;;;72.15;32.22;;;5.50;99.90;;;;;;4934782;28;20062;-77
2022/01/19 12:36:54;;;;;;;69.10;32.30;;;5.50;99.90;;;;;;4929630;28;20044;-75
2022/01/19 12:39:25;;;;;;;68.75;33.20;;;5.40;99.90;;;;;;4937802;28;20040;-77
2022/01/19 12:42:00;;;;;;;73.45;33.75;;;5.40;99.90;;;;;;4939280;28;20069;-77
2022/01/19 12:44:34;;;;;;;70.68;32.90;;;5.50;99.90;;;;;;4939070;28;20328;-77
2022/01/19 12:47:01;;;;;;;63.63;32.00;;;5.50;99.90;;;;;;4929752;28;20441;-77
2022/01/19 12:49:28;;;;;;;69.30;31.17;;;5.50;99.90;;;;;;4937182;28;20047;-77
2022/01/19 12:51:54;;;;;;;72.32;30.10;;;5.50;99.90;;;;;;4937013;28;20075;-77
2022/01/19 12:54:27;;;;;;;75.15;33.20;;;5.50;99.90;;;;;;4938804;28;20079;-75
2022/01/19 12:56:53;;;;;;;76.75;33.13;;;5.50;99.90;;;;;;4936305;28;20126;-76
2022/01/19 12:59:19;;;;;;;66.40;32.30;;;5.60;99.90;;;;;;4935452;28;20101;-76
2022/01/19 13:01:44;;;;;;;62.60;31.17;;;5.60;99.90;;;;;;4937005;28;20052;-76
2022/01/19 13:04:10;;;;;;;73.60;32.15;;;5.60;99.90;;;;;;4935343;28;20475;-76
2022/01/19 13:06:36;;;;;;;60.95;29.58;;;5.60;99.90;;;;;;4933956;28;20078;-77
2022/01/19 13:09:10;;;;;;;64.55;29.80;;;5.60;99.90;;;;;;4934378;28;20134;-76
2022/01/19 13:11:40;;;;;;;63.03;29.27;;;5.60;99.90;;;;;;4935905;28;20055;-78
2022/01/19 13:14:08;;;;;;;67.63;28.63;;;5.70;99.90;;;;;;4935370;28;20051;-78
2022/01/19 13:16:38;;;;;;;66.07;29.00;;;5.70;99.90;;;;;;4935874;28;20062;-73
2022/01/19 13:19:15;;;;;;;60.65;29.25;;;5.80;99.90;;;;;;4941828;28;20067;-79
2022/01/19 13:21:43;;;;;;;61.88;27.50;;;5.80;99.90;;;;;;4934968;28;20483;-77
2022/01/19 13:24:18;;;;;;;58.30;29.38;;;5.80;99.90;;;;;;4960627;28;20047;-78
2022/01/19 13:26:45;;;;;;;56.85;28.90;;;5.80;99.90;;;;;;4939290;28;20517;-74
2022/01/19 13:29:38;;;;;;;62.63;29.42;;;5.80;99.90;;;;;;4944138;28;20035;-76
2022/01/19 13:32:17;;;;;;;60.08;28.58;;;5.80;99.90;;;;;;4933775;29;20051;-75
2022/01/19 13:35:02;;;;;;;56.67;27.05;;;5.80;99.90;;;;;;4936038;29;20044;-76
2022/01/19 13:37:33;;;;;;;61.67;29.13;;;5.80;99.90;;;;;;4939138;28;20044;-75
2022/01/19 13:40:07;;;;;;;65.20;30.50;;;5.80;99.90;;;;;;4939181;28;20491;-75
2022/01/19 13:42:47;;;;;;;59.33;27.45;;;5.80;99.90;;;;;;4939463;28;20036;-77
2022/01/19 13:45:29;;;;;;;63.80;28.33;;;5.80;99.90;;;;;;4938864;28;20082;-75
2022/01/19 13:50:53;;;;;;;62.75;28.35;;;5.70;99.90;;;;;;4933863;28;20087;-75
2022/01/19 13:53:34;;;;;;;61.88;28.88;;;5.80;99.90;;;;;;4938732;28;20083;-74
2022/01/19 13:56:03;;;;;;;54.85;26.23;;;5.70;99.90;;;;;;4937483;28;20494;-75
2022/01/19 13:58:40;;;;;;;58.58;29.17;;;5.70;99.90;;;;;;4934850;28;20404;-75
2022/01/19 14:01:13;;;;;;;59.33;29.58;;;5.80;99.90;;;;;;4931601;28;20450;-76
2022/01/19 14:04:00;;;;;;;57.45;28.00;;;5.70;99.90;;;;;;4938489;28;20483;-75
2022/01/19 14:06:29;;;;;;;65.10;30.65;;;5.70;99.90;;;;;;4939285;28;20565;-75
2022/01/19 14:09:16;;;;;;;56.85;27.45;;;5.70;99.90;;;;;;4938203;28;20052;-76
2022/01/19 14:11:44;;;;;;;60.15;27.27;;;5.70;99.90;;;;;;4940492;28;20502;-73